Time;durP1;ratioP1;P1;durP2;ratioP2;P2;SDS_P1;SDS_P2;PMS_P1;PMS_P2;Temp;Humidity;BMP_temperature;BMP_pressure;BME280_temperature;BME280_humidity;BME280_pressure;Samples;Min_cycle;Max_cycle;Signal;HPM_P1;HPM_P2
2022/06/10 00:02:04;;;;;;;6.28;5.25;;;17.90;99.90;;;;;;5071136;28;20739;-76
2022/06/10 00:04:32;;;;;;;4.53;4.00;;;18.00;99.90;;;;;;5070683;28;20202;-75
2022/06/10 00:06:57;;;;;;;2.85;2.33;;;18.00;99.90;;;;;;5053959;28;20232;-76
2022/06/10 00:09:23;;;;;;;4.45;3.65;;;17.90;99.90;;;;;;5070323;28;20195;-77
2022/06/10 00:11:48;;;;;;;4.07;2.60;;;17.90;99.90;;;;;;5053200;28;20220;-76
2022/06/10 00:14:14;;;;;;;4.78;2.78;;;17.80;99.90;;;;;;5070938;28;20223;-76
2022/06/10 00:16:40;;;;;;;2.45;2.22;;;17.80;99.90;;;;;;5071761;28;20208;-75
2022/06/10 00:19:05;;;;;;;4.32;2.20;;;17.70;99.90;;;;;;5071083;28;20190;-76
2022/06/10 00:21:31;;;;;;;3.53;2.20;;;17.80;99.90;;;;;;5071044;28;20207;-75
2022/06/10 00:23:56;;;;;;;2.50;2.30;;;17.70;99.90;;;;;;5079315;28;20203;-75
2022/06/10 00:26:22;;;;;;;3.22;2.30;;;17.70;99.90;;;;;;5052674;28;20253;-75
2022/06/10 00:28:48;;;;;;;5.72;2.67;;;17.70;99.90;;;;;;5070674;28;20219;-73
2022/06/10 00:31:15;;;;;;;3.38;2.00;;;17.60;99.90;;;;;;5053544;28;20227;-77
2022/06/10 00:33:40;;;;;;;4.40;2.10;;;17.60;99.90;;;;;;5070386;28;20230;-77
2022/06/10 00:36:11;;;;;;;7.55;3.97;;;17.60;99.90;;;;;;5076976;28;20203;-77
2022/06/10 00:38:37;;;;;;;4.13;2.88;;;17.60;99.90;;;;;;5075135;28;20298;-77
2022/06/10 00:41:04;;;;;;;2.42;2.10;;;17.50;99.90;;;;;;5080591;28;20207;-76
2022/06/10 00:43:33;;;;;;;3.22;2.75;;;17.50;99.90;;;;;;5074668;28;20240;-77
2022/06/10 00:46:36;;;;;;;8.32;5.75;;;17.50;99.90;;;;;;5084465;28;20179;-78
2022/06/10 00:49:07;;;;;;;10.32;6.68;;;17.50;99.90;;;;;;5073690;28;20264;-77
2022/06/10 00:51:48;;;;;;;3.58;2.97;;;17.40;99.90;;;;;;5099365;28;20710;-76
2022/06/10 00:54:32;;;;;;;4.45;2.50;;;17.50;99.90;;;;;;5068696;28;20213;-76
2022/06/10 00:57:04;;;;;;;4.50;2.35;;;17.40;99.90;;;;;;5077392;28;20764;-77
2022/06/10 00:59:38;;;;;;;3.20;2.80;;;17.30;99.90;;;;;;5056900;28;20249;-77
2022/06/10 01:02:08;;;;;;;4.95;2.25;;;17.30;99.90;;;;;;5057060;28;20360;-77
2022/06/10 01:04:34;;;;;;;2.78;2.00;;;17.30;99.90;;;;;;5056088;28;20667;-76
2022/06/10 01:07:00;;;;;;;2.60;2.35;;;17.20;99.90;;;;;;5074321;28;20182;-76
2022/06/10 01:09:28;;;;;;;2.30;2.10;;;17.20;99.90;;;;;;5055715;28;20195;-77
2022/06/10 01:12:05;;;;;;;4.50;2.22;;;17.20;99.90;;;;;;5073771;28;20207;-77
2022/06/10 01:14:42;;;;;;;3.72;2.15;;;17.10;99.90;;;;;;5055386;28;20218;-77
2022/06/10 01:17:47;;;;;;;3.30;2.40;;;17.10;99.90;;;;;;5073454;28;20905;-77
2022/06/10 01:20:25;;;;;;;5.22;2.10;;;17.10;99.90;;;;;;5055242;28;20226;-76
2022/06/10 01:23:09;;;;;;;2.28;2.08;;;17.10;99.90;;;;;;5055559;28;20583;-75
2022/06/10 01:26:01;;;;;;;2.10;1.90;;;17.10;99.90;;;;;;5073515;28;20183;-76
2022/06/10 01:29:04;;;;;;;2.58;2.05;;;17.00;99.90;;;;;;5042795;28;20183;-76
2022/06/10 01:31:38;;;;;;;2.38;2.13;;;17.00;99.90;;;;;;5073307;28;20221;-75
2022/06/10 01:34:20;;;;;;;3.75;2.40;;;17.00;99.90;;;;;;5074483;28;20655;-75
2022/06/10 01:37:15;;;;;;;3.33;2.22;;;16.90;99.90;;;;;;5073929;28;20207;-75
2022/06/10 01:39:59;;;;;;;2.75;2.45;;;16.90;99.90;;;;;;5073286;28;20806;-76
2022/06/10 01:42:34;;;;;;;3.90;2.80;;;16.80;99.90;;;;;;5056388;28;20259;-75
2022/06/10 01:45:18;;;;;;;2.78;2.17;;;16.80;99.90;;;;;;5075290;28;20272;-74
2022/06/10 01:48:19;;;;;;;3.42;2.40;;;16.80;99.90;;;;;;5075601;28;20202;-75
2022/06/10 01:50:47;;;;;;;3.50;2.40;;;16.80;99.90;;;;;;5059610;28;20247;-76
2022/06/10 01:53:21;;;;;;;4.80;2.72;;;16.70;99.90;;;;;;5055241;28;20199;-76
2022/06/10 01:56:02;;;;;;;5.10;2.67;;;16.70;99.90;;;;;;5054893;28;20170;-75
2022/06/10 01:58:34;;;;;;;5.88;2.70;;;16.70;99.90;;;;;;5072148;28;20647;-75
2022/06/10 02:01:08;;;;;;;3.17;2.60;;;16.60;99.90;;;;;;5055176;28;20179;-76
2022/06/10 02:03:43;;;;;;;3.30;2.58;;;16.50;99.90;;;;;;5066686;28;20214;-75
2022/06/10 02:06:38;;;;;;;6.13;2.80;;;16.60;99.90;;;;;;5054486;28;20202;-76
2022/06/10 02:09:13;;;;;;;6.05;2.85;;;16.60;99.90;;;;;;5019662;28;20221;-76
2022/06/10 02:11:43;;;;;;;4.35;2.35;;;16.50;99.90;;;;;;5072090;28;20369;-76
2022/06/10 02:14:19;;;;;;;4.35;2.50;;;16.60;99.90;;;;;;5055634;28;20237;-76
2022/06/10 02:16:47;;;;;;;3.22;2.90;;;16.50;99.90;;;;;;5054237;28;20260;-75
2022/06/10 02:19:30;;;;;;;3.85;2.90;;;16.50;99.90;;;;;;5072976;28;20280;-76
2022/06/10 02:21:59;;;;;;;3.35;2.42;;;16.40;99.90;;;;;;5049415;28;20226;-75
2022/06/10 02:24:53;;;;;;;4.90;3.03;;;16.50;99.90;;;;;;5074005;28;20316;-75
2022/06/10 02:27:26;;;;;;;3.67;2.63;;;16.50;99.90;;;;;;5055619;28;20549;-76
2022/06/10 02:30:12;;;;;;;3.92;2.67;;;16.40;99.90;;;;;;5046566;28;20217;-75
2022/06/10 02:32:40;;;;;;;3.08;2.25;;;16.40;99.90;;;;;;5071612;28;20213;-74
2022/06/10 02:35:08;;;;;;;3.60;2.97;;;16.30;99.90;;;;;;5053463;28;20222;-75
2022/06/10 02:37:46;;;;;;;3.90;2.88;;;16.30;99.90;;;;;;5071529;28;20201;-76
2022/06/10 02:40:25;;;;;;;5.60;2.42;;;16.20;99.90;;;;;;5054056;28;20190;-76
2022/06/10 02:43:09;;;;;;;3.03;2.60;;;16.20;99.90;;;;;;5064505;28;20195;-76
2022/06/10 02:45:35;;;;;;;7.07;3.13;;;16.10;99.90;;;;;;5053990;28;20207;-76
2022/06/10 02:48:30;;;;;;;5.47;2.60;;;16.20;99.90;;;;;;5071521;28;20199;-75
2022/06/10 02:50:56;;;;;;;3.28;2.60;;;16.20;99.90;;;;;;5063914;28;20229;-76
2022/06/10 02:53:22;;;;;;;3.42;2.70;;;16.20;99.90;;;;;;5053613;28;20686;-75
2022/06/10 02:55:47;;;;;;;3.92;2.50;;;16.10;99.90;;;;;;5053450;28;20510;-75
2022/06/10 03:01:12;;;;;;;5.10;3.28;;;16.00;99.90;;;;;;5064694;28;20375;-75
2022/06/10 03:03:56;;;;;;;3.58;2.65;;;16.00;99.90;;;;;;5052517;28;20256;-76
2022/06/10 03:06:30;;;;;;;3.10;2.80;;;16.10;99.90;;;;;;5053108;28;20206;-75
2022/06/10 03:09:22;;;;;;;4.80;3.30;;;16.20;99.90;;;;;;5070924;28;20210;-75
2022/06/10 03:11:53;;;;;;;5.07;3.00;;;16.20;99.90;;;;;;5061875;28;20568;-76
2022/06/10 03:14:41;;;;;;;4.18;3.03;;;16.20;99.90;;;;;;5053010;28;20629;-76
2022/06/10 03:17:10;;;;;;;4.20;2.78;;;16.30;99.90;;;;;;5071118;28;20614;-75
2022/06/10 03:19:49;;;;;;;5.10;3.38;;;16.30;99.90;;;;;;5052578;28;20190;-76
2022/06/10 03:22:50;;;;;;;5.03;2.95;;;16.40;99.90;;;;;;5037539;28;20277;-75
2022/06/10 03:25:31;;;;;;;5.55;3.15;;;17.10;99.90;;;;;;5049328;28;20199;-76
2022/06/10 03:28:07;;;;;;;7.05;3.03;;;18.90;99.90;;;;;;5046308;28;20207;-76
2022/06/10 03:30:54;;;;;;;2.45;1.88;;;20.10;99.90;;;;;;5070771;28;20234;-76
2022/06/10 03:33:39;;;;;;;4.80;2.15;;;21.50;99.90;;;;;;5036386;28;20746;-76
2022/06/10 03:36:11;;;;;;;4.03;2.42;;;22.50;99.90;;;;;;5047644;28;20257;-76
2022/06/10 03:38:43;;;;;;;3.42;1.98;;;23.30;99.90;;;;;;5052686;28;20206;-77
2022/06/10 03:41:20;;;;;;;2.42;2.00;;;23.50;99.90;;;;;;5071027;28;20210;-76
2022/06/10 03:43:49;;;;;;;4.50;2.05;;;23.00;99.90;;;;;;5061242;28;20206;-76
2022/06/10 03:46:16;;;;;;;3.33;1.83;;;24.20;99.90;;;;;;5053259;28;20229;-76
2022/06/10 03:48:44;;;;;;;4.25;1.85;;;24.90;99.90;;;;;;5070321;28;20209;-75
2022/06/10 03:51:12;;;;;;;3.90;1.92;;;24.90;99.90;;;;;;5052657;28;20482;-76
2022/06/10 03:53:38;;;;;;;4.00;2.08;;;24.50;99.90;;;;;;5070310;28;20260;-76
2022/06/10 03:56:04;;;;;;;4.10;2.15;;;24.90;99.90;;;;;;5070616;28;20207;-76
2022/06/10 03:58:29;;;;;;;2.72;2.10;;;26.00;99.90;;;;;;5070247;28;20179;-76
2022/06/10 04:00:58;;;;;;;5.05;2.30;;;26.20;99.90;;;;;;5053382;28;20218;-76
2022/06/10 04:03:24;;;;;;;3.70;1.80;;;26.50;99.90;;;;;;5051887;28;20206;-76
2022/06/10 04:05:50;;;;;;;4.07;2.25;;;27.50;99.90;;;;;;5052626;28;20191;-76
2022/06/10 04:08:15;;;;;;;4.03;2.08;;;27.70;99.90;;;;;;5070674;28;20211;-76
2022/06/10 04:10:41;;;;;;;2.72;1.95;;;28.00;99.90;;;;;;5052440;28;20214;-76
2022/06/10 04:13:07;;;;;;;5.72;2.13;;;28.50;99.90;;;;;;5054367;28;20217;-76
2022/06/10 04:15:32;;;;;;;4.43;2.05;;;28.70;99.90;;;;;;5073894;28;20221;-76
2022/06/10 04:17:58;;;;;;;5.35;2.80;;;29.00;99.90;;;;;;5056453;28;20202;-77
2022/06/10 04:20:26;;;;;;;3.35;2.58;;;29.20;99.90;;;;;;5074060;28;20214;-76
2022/06/10 04:22:52;;;;;;;3.33;2.30;;;29.30;99.90;;;;;;5056708;28;20214;-76
2022/06/10 04:25:18;;;;;;;3.47;2.47;;;29.80;99.90;;;;;;5075183;28;20199;-76
2022/06/10 04:27:43;;;;;;;2.80;2.13;;;30.10;99.90;;;;;;5056432;28;20298;-76
2022/06/10 04:30:35;;;;;;;6.03;2.60;;;30.10;99.90;;;;;;5056291;28;20282;-77
2022/06/10 04:33:01;;;;;;;3.50;2.72;;;29.60;99.90;;;;;;5056396;28;20249;-76
2022/06/10 04:35:27;;;;;;;4.25;2.60;;;29.40;99.90;;;;;;5056209;28;20223;-76
2022/06/10 04:37:54;;;;;;;3.30;2.13;;;29.80;99.90;;;;;;5056140;28;20207;-76
2022/06/10 04:40:23;;;;;;;5.28;3.00;;;30.00;99.90;;;;;;5074464;28;20202;-76
2022/06/10 04:42:50;;;;;;;3.67;2.15;;;30.20;99.90;;;;;;5061554;28;20222;-76
2022/06/10 04:45:19;;;;;;;4.18;2.80;;;31.00;99.90;;;;;;5084638;28;20210;-76
2022/06/10 04:47:45;;;;;;;3.78;2.40;;;31.60;99.90;;;;;;5091876;28;20203;-76
2022/06/10 04:50:14;;;;;;;5.70;2.40;;;31.80;99.90;;;;;;5058907;28;20203;-77
2022/06/10 04:52:40;;;;;;;5.90;2.67;;;31.50;99.90;;;;;;5067015;28;20168;-77
2022/06/10 04:55:07;;;;;;;5.78;2.92;;;31.90;99.90;;;;;;5058695;28;20187;-76
2022/06/10 04:57:34;;;;;;;4.85;2.65;;;32.00;99.90;;;;;;5058812;28;20218;-77
2022/06/10 04:59:59;;;;;;;5.13;2.72;;;32.10;99.20;;;;;;5058417;28;20218;-77
2022/06/10 05:02:25;;;;;;;5.57;2.85;;;32.20;99.00;;;;;;5056431;28;20206;-77
2022/06/10 05:04:51;;;;;;;4.55;2.13;;;32.10;98.80;;;;;;5074385;28;20218;-77
2022/06/10 05:07:16;;;;;;;4.65;2.33;;;32.50;97.50;;;;;;5074793;28;20189;-77
2022/06/10 05:09:42;;;;;;;4.38;2.22;;;32.70;97.20;;;;;;5077161;28;20197;-77
2022/06/10 05:12:08;;;;;;;6.72;2.20;;;32.90;96.70;;;;;;5081062;28;20263;-77
2022/06/10 05:14:34;;;;;;;4.82;2.38;;;32.80;96.20;;;;;;5073323;28;20226;-77
2022/06/10 05:17:01;;;;;;;6.18;2.38;;;32.20;96.70;;;;;;5055985;28;20240;-77
2022/06/10 05:19:26;;;;;;;3.95;1.88;;;33.00;95.70;;;;;;5055720;28;20206;-77
2022/06/10 05:21:52;;;;;;;6.15;2.55;;;33.00;95.00;;;;;;5073834;28;20344;-77
2022/06/10 05:24:17;;;;;;;4.03;1.90;;;32.70;94.90;;;;;;5055046;28;20206;-77
2022/06/10 05:26:43;;;;;;;4.25;2.00;;;32.60;94.80;;;;;;5073748;28;20742;-76
2022/06/10 05:29:09;;;;;;;4.07;1.80;;;33.10;94.70;;;;;;5054947;28;20268;-77
2022/06/10 05:31:34;;;;;;;2.15;1.77;;;33.20;93.50;;;;;;5073505;28;20191;-77
2022/06/10 05:36:44;;;;;;;5.15;2.03;;;33.40;93.00;;;;;;5073410;28;20740;-77
2022/06/10 05:39:10;;;;;;;3.17;1.33;;;33.20;92.50;;;;;;5074286;28;20206;-78
2022/06/10 05:44:20;;;;;;;3.53;1.60;;;33.00;92.00;;;;;;5075726;28;20209;-78
2022/06/10 05:46:45;;;;;;;4.50;1.40;;;33.20;91.10;;;;;;5074625;28;20201;-77
2022/06/10 05:49:11;;;;;;;2.67;1.10;;;32.90;91.00;;;;;;5074890;28;20178;-78
2022/06/10 05:51:37;;;;;;;3.85;1.30;;;32.60;90.50;;;;;;5074051;28;20211;-77
2022/06/10 05:54:04;;;;;;;2.97;1.38;;;32.50;91.40;;;;;;5056707;28;20226;-77
2022/06/10 05:56:30;;;;;;;4.60;1.58;;;32.70;90.50;;;;;;5076092;28;20237;-77
2022/06/10 05:58:56;;;;;;;3.45;1.30;;;32.80;90.90;;;;;;5059125;28;20241;-78
2022/06/10 06:01:22;;;;;;;2.80;1.30;;;32.80;90.40;;;;;;5074235;28;20666;-78
2022/06/10 06:03:48;;;;;;;2.30;1.30;;;33.20;89.70;;;;;;5073725;28;20202;-78
2022/06/10 06:06:13;;;;;;;4.43;1.30;;;33.80;88.20;;;;;;5072679;28;20841;-78
2022/06/10 06:08:39;;;;;;;2.03;1.30;;;34.40;86.30;;;;;;5073218;28;20210;-78
2022/06/10 06:11:05;;;;;;;2.17;1.10;;;34.10;85.30;;;;;;5072388;28;20244;-77
2022/06/10 06:13:30;;;;;;;2.42;1.30;;;33.50;86.70;;;;;;5071897;28;20249;-78
2022/06/10 06:15:56;;;;;;;2.22;1.30;;;33.70;85.50;;;;;;5055426;28;20232;-78
2022/06/10 06:18:22;;;;;;;1.30;1.08;;;33.50;85.90;;;;;;5071855;28;20218;-77
2022/06/10 06:20:48;;;;;;;2.78;1.42;;;33.10;85.20;;;;;;5072385;28;20220;-78
2022/06/10 06:23:13;;;;;;;2.15;1.45;;;32.90;86.50;;;;;;5071978;28;20577;-78
2022/06/10 06:25:39;;;;;;;2.15;1.42;;;33.90;85.40;;;;;;5055824;28;20670;-78
2022/06/10 06:28:05;;;;;;;2.90;1.40;;;34.20;83.70;;;;;;5072649;28;20643;-78
2022/06/10 06:30:34;;;;;;;1.90;1.27;;;34.30;84.30;;;;;;5071043;28;20236;-77
2022/06/10 06:33:05;;;;;;;1.88;1.27;;;34.00;83.60;;;;;;5071547;28;20211;-77
2022/06/10 06:35:33;;;;;;;2.38;1.30;;;33.60;83.70;;;;;;5067080;28;20213;-76
2022/06/10 06:37:59;;;;;;;1.98;1.13;;;33.80;84.10;;;;;;5053447;28;20311;-76
2022/06/10 06:40:25;;;;;;;2.50;1.40;;;34.20;83.50;;;;;;5072065;28;20198;-78
2022/06/10 06:42:51;;;;;;;4.85;1.30;;;33.90;81.60;;;;;;5071912;28;20293;-74
2022/06/10 06:45:18;;;;;;;2.50;1.48;;;33.80;82.60;;;;;;5072020;28;20285;-76
2022/06/10 06:47:44;;;;;;;5.60;1.40;;;33.40;81.80;;;;;;5071641;28;20206;-77
2022/06/10 06:50:13;;;;;;;4.47;1.65;;;33.80;82.20;;;;;;5071909;28;20198;-77
2022/06/10 06:52:40;;;;;;;3.33;1.35;;;34.00;82.50;;;;;;5073924;28;20171;-77
2022/06/10 06:55:06;;;;;;;4.22;1.40;;;34.30;81.70;;;;;;5073343;28;20194;-77
2022/06/10 06:57:31;;;;;;;4.15;1.67;;;34.30;82.20;;;;;;5073110;28;20203;-77
2022/06/10 07:00:05;;;;;;;4.18;1.40;;;34.70;79.60;;;;;;5071625;28;20709;-77
2022/06/10 07:02:31;;;;;;;3.47;1.75;;;34.50;79.20;;;;;;5071987;28;20218;-77
2022/06/10 07:04:56;;;;;;;2.17;1.27;;;35.20;77.40;;;;;;5071691;28;20301;-77
2022/06/10 07:07:22;;;;;;;4.15;1.45;;;34.20;77.10;;;;;;5077245;28;20253;-77
2022/06/10 07:09:47;;;;;;;4.93;1.52;;;33.90;78.60;;;;;;5071572;28;20202;-77
2022/06/10 07:12:13;;;;;;;5.97;1.80;;;33.10;78.20;;;;;;5071824;28;20229;-77
2022/06/10 07:14:39;;;;;;;4.07;1.30;;;32.90;78.50;;;;;;5070714;28;20249;-77
2022/06/10 07:17:05;;;;;;;4.15;1.63;;;32.60;79.50;;;;;;5053157;28;20264;-76
2022/06/10 07:19:31;;;;;;;4.28;1.50;;;32.40;81.00;;;;;;5070625;28;20194;-77
2022/06/10 07:21:56;;;;;;;7.53;1.77;;;32.70;80.60;;;;;;5053410;28;20309;-76
2022/06/10 07:24:22;;;;;;;3.15;1.50;;;34.00;79.60;;;;;;5075149;28;20297;-76
2022/06/10 07:26:48;;;;;;;4.25;1.50;;;34.20;77.30;;;;;;5052977;28;20194;-77
2022/06/10 07:29:14;;;;;;;3.33;1.55;;;33.90;78.00;;;;;;5071146;28;20218;-77
2022/06/10 07:31:41;;;;;;;3.97;1.48;;;33.30;77.40;;;;;;5070473;28;20178;-75
2022/06/10 07:34:08;;;;;;;4.85;1.50;;;33.30;77.80;;;;;;5071647;28;20201;-77
2022/06/10 07:36:34;;;;;;;4.65;1.50;;;33.30;78.00;;;;;;5052832;28;20299;-77
2022/06/10 07:38:59;;;;;;;5.47;1.60;;;33.60;77.50;;;;;;5070481;28;20614;-76
2022/06/10 07:44:09;;;;;;;5.07;1.73;;;34.20;76.40;;;;;;5071241;28;20297;-77
2022/06/10 07:46:35;;;;;;;3.20;1.30;;;34.80;76.00;;;;;;5070879;28;20600;-78
2022/06/10 07:49:00;;;;;;;4.53;1.65;;;34.40;75.80;;;;;;5074840;28;20249;-77
2022/06/10 07:51:26;;;;;;;3.25;1.67;;;34.60;75.30;;;;;;5074441;28;20297;-76
2022/06/10 07:53:52;;;;;;;4.47;1.70;;;34.60;75.50;;;;;;5056780;28;20326;-77
2022/06/10 07:56:20;;;;;;;2.60;1.30;;;34.70;75.60;;;;;;5074649;28;20682;-76
2022/06/10 07:58:47;;;;;;;3.63;1.45;;;34.80;75.20;;;;;;5048215;28;20198;-77
2022/06/10 08:01:13;;;;;;;4.45;1.80;;;35.00;73.60;;;;;;5056914;28;20228;-79
2022/06/10 08:03:39;;;;;;;5.85;1.92;;;33.90;73.30;;;;;;5074629;28;20202;-77
2022/06/10 08:06:04;;;;;;;5.15;1.70;;;33.60;74.90;;;;;;5056600;28;20203;-76
2022/06/10 08:08:30;;;;;;;3.83;1.60;;;33.80;75.40;;;;;;5074272;28;20289;-77
2022/06/10 08:10:57;;;;;;;2.58;1.45;;;34.30;74.60;;;;;;5074569;28;20214;-77
2022/06/10 08:13:23;;;;;;;3.60;1.58;;;34.50;73.10;;;;;;5074580;28;20709;-77
2022/06/10 08:15:49;;;;;;;4.13;1.67;;;34.50;72.90;;;;;;5028535;22;20233;-76
2022/06/10 08:18:17;;;;;;;3.80;1.83;;;34.40;73.70;;;;;;5012420;28;20235;-75
2022/06/10 08:23:32;;;;;;;4.28;1.80;;;33.70;72.10;;;;;;5014419;28;20259;-76
2022/06/10 08:26:00;;;;;;;6.05;1.95;;;33.80;72.80;;;;;;5013284;28;20248;-76
2022/06/10 08:28:26;;;;;;;4.28;1.73;;;33.60;72.40;;;;;;5014276;28;20212;-75
2022/06/10 08:30:52;;;;;;;6.93;2.00;;;34.00;72.60;;;;;;5053790;28;20675;-75
2022/06/10 08:33:18;;;;;;;4.53;1.75;;;33.70;72.80;;;;;;5035935;28;20245;-76
2022/06/10 08:35:45;;;;;;;5.32;1.88;;;32.20;73.40;;;;;;5054028;28;20649;-77
2022/06/10 08:38:13;;;;;;;7.88;3.00;;;31.00;74.60;;;;;;5054065;28;20211;-77
2022/06/10 08:40:56;;;;;;;4.03;1.63;;;31.90;76.60;;;;;;5036110;28;20203;-75
2022/06/10 08:43:38;;;;;;;3.78;1.63;;;32.80;74.90;;;;;;5036282;28;20182;-76
2022/06/10 08:46:29;;;;;;;6.50;1.60;;;32.80;75.00;;;;;;5047339;28;20208;-77
2022/06/10 08:49:01;;;;;;;5.05;2.00;;;33.40;73.60;;;;;;5035974;28;20939;-77
2022/06/10 08:51:41;;;;;;;5.22;1.63;;;32.80;73.60;;;;;;5053628;28;20775;-77
2022/06/10 08:54:25;;;;;;;6.18;1.83;;;32.80;73.90;;;;;;5036168;28;20199;-77
2022/06/10 08:56:55;;;;;;;6.35;3.08;;;32.50;75.00;;;;;;5036636;28;20208;-77
2022/06/10 08:59:36;;;;;;;6.28;1.80;;;33.00;74.90;;;;;;5034348;28;20688;-78
2022/06/10 09:02:26;;;;;;;6.78;1.92;;;33.20;74.10;;;;;;5054073;28;20222;-77
2022/06/10 09:05:00;;;;;;;7.07;2.00;;;32.80;74.50;;;;;;5035620;28;20230;-78
2022/06/10 09:07:33;;;;;;;3.65;1.52;;;32.50;75.10;;;;;;5036117;28;20176;-77
2022/06/10 09:10:01;;;;;;;3.65;1.70;;;32.10;75.00;;;;;;5036333;28;20208;-77
2022/06/10 09:12:54;;;;;;;6.60;1.73;;;31.60;76.50;;;;;;5035983;28;20218;-77
2022/06/10 09:15:22;;;;;;;3.83;1.75;;;31.10;77.50;;;;;;5019314;28;20224;-77
2022/06/10 09:17:56;;;;;;;7.05;1.88;;;30.10;77.80;;;;;;5016225;28;20200;-77
2022/06/10 09:20:33;;;;;;;7.15;2.33;;;29.40;79.40;;;;;;5033722;28;20220;-77
2022/06/10 09:23:06;;;;;;;8.38;4.22;;;29.30;79.70;;;;;;5033795;28;20620;-77
2022/06/10 09:25:48;;;;;;;6.80;3.15;;;29.30;81.20;;;;;;5034191;28;20240;-77
2022/06/10 09:28:15;;;;;;;6.50;2.25;;;29.70;81.70;;;;;;5050600;28;20175;-77
2022/06/10 09:30:54;;;;;;;5.22;1.40;;;29.90;79.90;;;;;;5044829;28;20212;-77
2022/06/10 09:34:02;;;;;;;4.90;1.88;;;30.00;78.30;;;;;;5017381;28;20211;-77
2022/06/10 09:36:48;;;;;;;6.63;1.67;;;30.30;79.00;;;;;;4954230;28;20247;-77
2022/06/10 09:42:46;;;;;;;7.13;1.52;;;30.40;78.90;;;;;;5036516;28;20264;-77
2022/06/10 09:45:32;;;;;;;4.30;1.70;;;29.80;79.80;;;;;;5037864;28;20705;-77
2022/06/10 09:48:26;;;;;;;7.38;2.33;;;29.50;81.00;;;;;;5019506;28;20235;-77
2022/06/10 09:51:09;;;;;;;11.30;3.65;;;28.90;79.10;;;;;;5031094;28;20242;-77
2022/06/10 09:53:41;;;;;;;5.47;1.70;;;28.90;79.20;;;;;;5042430;28;20204;-77
2022/06/10 09:56:33;;;;;;;4.75;1.73;;;28.20;80.00;;;;;;5014853;28;20205;-78
2022/06/10 09:59:20;;;;;;;5.10;1.42;;;27.40;81.20;;;;;;5014772;28;20220;-77
2022/06/10 10:02:13;;;;;;;10.68;2.70;;;27.90;81.50;;;;;;5014772;28;20254;-77
2022/06/10 10:05:07;;;;;;;10.57;4.22;;;28.20;80.50;;;;;;5014421;28;20192;-76
2022/06/10 10:07:39;;;;;;;7.18;1.80;;;28.10;79.60;;;;;;5031171;28;20194;-78
2022/06/10 10:10:26;;;;;;;6.50;1.98;;;27.90;82.30;;;;;;5014889;28;20227;-75
2022/06/10 10:13:24;;;;;;;5.95;1.92;;;27.40;88.40;;;;;;5046076;28;20218;-75
2022/06/10 10:16:06;;;;;;;7.10;1.77;;;27.60;84.70;;;;;;5042858;28;20576;-76
2022/06/10 10:18:38;;;;;;;5.07;1.73;;;27.00;83.30;;;;;;5016904;28;20219;-76
2022/06/10 10:21:17;;;;;;;3.80;1.50;;;26.40;83.50;;;;;;5014600;28;20220;-76
2022/06/10 10:23:55;;;;;;;7.60;1.60;;;26.70;88.90;;;;;;5024995;28;20260;-76
2022/06/10 10:26:33;;;;;;;8.45;2.35;;;27.00;84.60;;;;;;5042723;28;20607;-77
2022/06/10 10:29:05;;;;;;;9.10;3.45;;;26.90;85.80;;;;;;5004002;28;20212;-76
2022/06/10 10:31:37;;;;;;;4.32;1.70;;;26.70;86.20;;;;;;5024530;28;20665;-77
2022/06/10 10:34:05;;;;;;;7.22;2.08;;;26.30;86.60;;;;;;5039674;28;20190;-76
2022/06/10 10:36:46;;;;;;;4.25;1.90;;;26.60;85.90;;;;;;5045859;28;20212;-76
2022/06/10 10:39:32;;;;;;;5.55;2.05;;;26.90;85.20;;;;;;5047297;28;20226;-76
2022/06/10 10:42:01;;;;;;;6.18;2.20;;;26.80;85.30;;;;;;5044598;28;20210;-77
2022/06/10 10:44:38;;;;;;;4.78;1.80;;;26.70;85.40;;;;;;5041602;28;20242;-76
2022/06/10 10:47:10;;;;;;;5.95;1.77;;;26.90;86.60;;;;;;5031797;28;20204;-76
2022/06/10 10:49:53;;;;;;;4.55;1.63;;;26.70;87.20;;;;;;5031040;28;20184;-76
2022/06/10 10:52:28;;;;;;;4.00;1.73;;;26.10;86.80;;;;;;5031842;28;20183;-77
2022/06/10 10:54:58;;;;;;;5.45;2.17;;;26.10;88.30;;;;;;5030228;28;20220;-77
2022/06/10 10:57:29;;;;;;;3.38;1.50;;;26.40;87.90;;;;;;5029982;28;20245;-77
2022/06/10 11:00:31;;;;;;;6.95;2.20;;;26.30;87.20;;;;;;5030348;28;20216;-76
2022/06/10 11:03:02;;;;;;;4.63;1.52;;;27.00;89.00;;;;;;5051451;28;20242;-76
2022/06/10 11:05:46;;;;;;;6.07;1.88;;;27.20;89.00;;;;;;5050230;28;20283;-76
2022/06/10 11:08:37;;;;;;;4.45;1.88;;;27.60;87.30;;;;;;5036808;28;20208;-77
2022/06/10 11:11:22;;;;;;;7.07;2.65;;;27.30;86.00;;;;;;5043927;28;20649;-77
2022/06/10 11:13:55;;;;;;;8.15;2.15;;;26.90;86.50;;;;;;5046879;28;20213;-75
2022/06/10 11:16:27;;;;;;;6.28;1.90;;;26.80;87.30;;;;;;5030339;28;20196;-77
2022/06/10 11:19:00;;;;;;;2.08;1.67;;;26.70;87.80;;;;;;5049535;28;20204;-77
2022/06/10 11:21:26;;;;;;;6.20;2.22;;;26.90;87.30;;;;;;5048854;28;20208;-77
2022/06/10 11:23:57;;;;;;;5.90;1.90;;;26.70;87.40;;;;;;5049449;28;20221;-77
2022/06/10 11:26:25;;;;;;;5.45;2.03;;;27.00;87.60;;;;;;5049374;28;20215;-76
2022/06/10 11:29:00;;;;;;;10.40;2.83;;;26.90;85.80;;;;;;5049486;28;20204;-77
2022/06/10 11:31:28;;;;;;;13.38;3.72;;;26.80;90.00;;;;;;5034458;28;20176;-76
2022/06/10 11:33:58;;;;;;;4.18;2.03;;;27.30;90.20;;;;;;5029923;28;20436;-72
2022/06/10 11:36:27;;;;;;;6.22;2.25;;;27.40;85.80;;;;;;5035892;28;20210;-77
2022/06/10 11:39:14;;;;;;;7.18;2.90;;;27.50;86.50;;;;;;5033810;28;20204;-77
2022/06/10 11:41:40;;;;;;;7.25;2.53;;;27.70;85.60;;;;;;5039258;28;20204;-77
2022/06/10 11:44:19;;;;;;;6.85;2.30;;;27.30;84.00;;;;;;5033164;28;20227;-77
2022/06/10 11:46:58;;;;;;;4.70;2.08;;;27.40;84.40;;;;;;5029723;28;20172;-78
2022/06/10 11:49:27;;;;;;;7.82;2.55;;;27.10;84.80;;;;;;5030407;28;20183;-77
2022/06/10 11:52:00;;;;;;;18.70;8.63;;;27.10;85.50;;;;;;5029817;28;20220;-77
2022/06/10 11:54:38;;;;;;;14.88;7.68;;;27.30;85.20;;;;;;5034734;28;20247;-77
2022/06/10 12:00:18;;;;;;;7.43;2.13;;;27.60;85.60;;;;;;5050570;28;20745;-77
2022/06/10 12:02:44;;;;;;;7.18;1.80;;;27.00;84.60;;;;;;5049470;28;20265;-76
2022/06/10 12:05:21;;;;;;;4.05;1.45;;;26.80;85.80;;;;;;5049200;28;20211;-77
2022/06/10 12:08:06;;;;;;;5.03;1.50;;;26.20;87.30;;;;;;5050342;28;20285;-75
2022/06/10 12:10:45;;;;;;;3.42;1.88;;;26.20;88.60;;;;;;5050568;28;20420;-76
2022/06/10 12:13:12;;;;;;;8.07;2.63;;;26.40;86.50;;;;;;5050696;28;20579;-76
2022/06/10 12:15:49;;;;;;;6.35;2.40;;;26.50;86.20;;;;;;5045467;28;20215;-76
2022/06/10 12:18:16;;;;;;;8.60;2.28;;;26.50;86.40;;;;;;5038740;28;20212;-76
2022/06/10 12:20:49;;;;;;;7.82;4.13;;;26.40;86.30;;;;;;5030605;28;20719;-76
2022/06/10 12:23:26;;;;;;;6.70;2.40;;;26.40;86.30;;;;;;5029297;28;20330;-77
2022/06/10 12:26:18;;;;;;;8.95;2.60;;;26.30;87.00;;;;;;5043057;28;20702;-77
2022/06/10 12:29:02;;;;;;;4.90;2.10;;;26.40;88.50;;;;;;5050120;28;20667;-76
2022/06/10 12:31:52;;;;;;;4.30;1.90;;;26.50;86.50;;;;;;5048887;28;20198;-76
2022/06/10 12:34:46;;;;;;;3.85;1.95;;;25.90;84.10;;;;;;5053650;28;20196;-75
2022/06/10 12:37:45;;;;;;;2.72;1.50;;;25.60;84.80;;;;;;5034885;28;20200;-76
2022/06/10 12:40:11;;;;;;;6.40;2.47;;;25.70;85.00;;;;;;5023158;28;20559;-76
2022/06/10 12:42:54;;;;;;;4.00;1.55;;;25.50;85.90;;;;;;5032543;28;20200;-75
2022/06/10 12:45:23;;;;;;;3.47;1.58;;;25.90;86.80;;;;;;5035675;28;20566;-76
2022/06/10 12:47:57;;;;;;;3.88;3.05;;;25.90;85.00;;;;;;5033752;28;20219;-77
2022/06/10 12:50:24;;;;;;;4.53;1.67;;;25.90;84.90;;;;;;5033812;28;20576;-76
2022/06/10 12:53:04;;;;;;;4.60;1.60;;;25.90;84.40;;;;;;5032784;28;20318;-76
2022/06/10 12:55:49;;;;;;;3.53;1.83;;;26.10;85.30;;;;;;5033484;28;20203;-77
2022/06/10 12:58:39;;;;;;;5.78;2.13;;;26.00;85.00;;;;;;5048583;28;20168;-76
2022/06/10 13:01:39;;;;;;;5.07;1.77;;;26.00;85.50;;;;;;5052524;28;20212;-77
2022/06/10 13:04:25;;;;;;;6.45;1.50;;;25.90;85.20;;;;;;5052597;28;20196;-76
2022/06/10 13:06:57;;;;;;;6.55;2.10;;;25.90;84.10;;;;;;5050856;28;20202;-77
2022/06/10 13:09:26;;;;;;;5.28;1.85;;;25.70;83.50;;;;;;5050948;28;20218;-76
2022/06/10 13:11:56;;;;;;;4.25;1.60;;;25.70;83.40;;;;;;5051892;28;20287;-77
2022/06/10 13:14:33;;;;;;;5.03;2.20;;;25.70;83.90;;;;;;5044365;28;20220;-76
2022/06/10 13:16:58;;;;;;;6.72;1.77;;;25.90;83.20;;;;;;5032176;28;20246;-77
2022/06/10 13:19:48;;;;;;;8.85;2.85;;;25.90;82.60;;;;;;5032122;28;20337;-77
2022/06/10 13:22:20;;;;;;;3.90;1.50;;;26.00;81.60;;;;;;5032765;28;20201;-76
2022/06/10 13:24:52;;;;;;;2.30;1.35;;;25.90;83.20;;;;;;5021726;28;20219;-77
2022/06/10 13:27:21;;;;;;;2.47;1.35;;;25.90;84.40;;;;;;4996110;28;20705;-77
2022/06/10 13:29:52;;;;;;;5.20;2.10;;;25.90;85.00;;;;;;4976716;28;20213;-77
2022/06/10 13:32:18;;;;;;;3.28;1.25;;;25.90;85.00;;;;;;4982910;28;20216;-77
2022/06/10 13:34:53;;;;;;;4.05;1.40;;;25.90;84.90;;;;;;4997015;28;20211;-76
2022/06/10 13:37:21;;;;;;;3.63;1.52;;;25.80;84.70;;;;;;4999950;28;20236;-77